• Join FlightAware (Why Join?)
  • Login
  • US Flag 
11:48PM EST


 

Airport Tracker/Info


-or-


 

Live Flight TrackerFlight Track Log ✈ SWA1044 ✈ 18-May-2013 ✈ KTPA - KBDL

Flight Track Log - Related Links

Times and Time Zones

All times are in EDT time to prevent confusion due to time zone crossing. See the SWA1044 flight status page for this flight to view local times or setup timezone preferences in your user account.

Time Position Orientation Groundspeed Altitude Reporting Facility
EDT Latitude Longitude Course Direction KTS MPH feet Rate Location/Type
03:09PM 27.9333 -82.5500 211° Southwest 195 224 1,600  Level Tampa TRACON
03:10PM 27.8833 -82.5833 211° Southwest 236 272 3,800 2,340 Climbing Tampa TRACON
03:11PM 27.9167 -82.6333 307° West 259 298 6,300 2,100 Climbing Tampa TRACON
03:13PM 28.0767 -82.6244 North 284 327 10,600 1,980 Climbing Jacksonville Center
03:14PM 28.1747 -82.6194 North 318 366 12,800 2,400 Climbing Jacksonville Center
03:15PM 28.2747 -82.6122 North 340 391 15,400 2,160 Climbing Jacksonville Center
03:16PM 28.3769 -82.6072 North 358 412 17,200 1,800 Climbing Jacksonville Center
03:17PM 28.4856 -82.5997 North 372 428 19,000 1,800 Climbing Jacksonville Center
03:18PM 28.5961 -82.5947 North 383 441 20,800 1,800 Climbing Jacksonville Center
03:19PM 28.7172 -82.5944 360° North 388 447 22,600 1,620 Climbing Jacksonville Center
03:20PM 28.8300 -82.6106 353° North 388 447 24,100 1,320 Climbing Jacksonville Center
03:21PM 28.9469 -82.6244 354° North 401 461 25,300 1,140 Climbing Jacksonville Center
03:22PM 29.0639 -82.6431 352° North 414 476 26,400 1,140 Climbing Jacksonville Center
03:23PM 29.1828 -82.6594 353° North 419 482 27,600 1,440 Climbing Jacksonville Center
03:24PM 29.3019 -82.6758 353° North 425 489 29,300 1,560 Climbing Jacksonville Center
03:25PM 29.4167 -82.6922 353° North 425 489 30,800 1,260 Climbing Jacksonville Center
03:26PM 29.5231 -82.6969 358° North 420 483 31,900 1,080 Climbing Jacksonville Center
03:27PM 29.6400 -82.6967 360° North 420 483 33,000 1,020 Climbing Jacksonville Center
03:28PM 29.7569 -82.6939 North 415 478 34,000 960 Climbing Jacksonville Center
03:29PM 29.8697 -82.6914 North 415 478 35,000 480 Climbing Jacksonville Center
03:30PM 29.9867 -82.6911 360° North 415 478 35,000 -60 Level Jacksonville Center
03:31PM 30.1056 -82.6861 North 420 483 34,900  Descending Jacksonville Center
03:32PM 30.2206 -82.6858 360° North 420 483 35,000  Climbing Jacksonville Center
03:33PM 30.3353 -82.6856 360° North 414 476 35,000  Level Jacksonville Center
03:34PM 30.4481 -82.6831 North 414 476 35,000  Level Jacksonville Center
03:35PM 30.5733 -82.6753 North 408 470 35,000  Level Jacksonville Center
03:36PM 30.6628 -82.6125 31° Northeast 399 459 35,000  Level Jacksonville Center
03:37PM 30.7692 -82.5614 22° Northeast 399 459 35,000  Level Jacksonville Center
03:38PM 30.8778 -82.5053 24° Northeast 413 475 35,000  Level Jacksonville Center
03:39PM 30.9861 -82.4539 22° Northeast 418 481 35,000  Level Jacksonville Center
03:40PM 31.0967 -82.4025 22° Northeast 418 481 35,000  Level Jacksonville Center
03:41PM 31.2050 -82.3486 23° Northeast 418 481 35,000  Level Jacksonville Center
03:42PM 31.3133 -82.2992 21° North 413 475 35,000  Level Jacksonville Center
03:43PM 31.4236 -82.2450 23° Northeast 413 475 35,000  Level Jacksonville Center
03:44PM 31.5319 -82.1906 23° Northeast 418 481 35,000  Level Jacksonville Center
03:45PM 31.6403 -82.1311 25° Northeast 418 481 35,000  Level Jacksonville Center
03:46PM 31.7608 -82.0717 23° Northeast 423 487 35,000  Level Jacksonville Center
03:47PM 31.8711 -82.0192 22° Northeast 423 487 35,000  Level Jacksonville Center
03:48PM 31.9711 -81.9692 23° Northeast 423 487 35,000  Level Jacksonville Center
03:49PM 32.0958 -81.9167 20° North 418 481 35,000  Level Jacksonville Center
03:50PM 32.2061 -81.8639 22° Northeast 431 496 35,000  Level Jacksonville Center
03:51PM 32.3103 -81.8158 21° North 431 496 35,000  Level Jacksonville Center
03:52PM 32.4328 -81.7553 23° Northeast 431 496 35,000  Level Jacksonville Center
03:53PM 32.5347 -81.7097 21° North 431 496 35,000  Level Jacksonville Center
03:54PM 32.6572 -81.6489 23° Northeast 431 496 35,000  Level Jacksonville Center
03:55PM 32.7694 -81.5931 23° Northeast 431 496 35,000 -60 Level Jacksonville Center
03:56PM 32.8794 -81.5369 23° Northeast 431 496 34,900  Descending Jacksonville Center
03:57PM 32.9936 -81.4858 21° North 431 496 35,000  Climbing Jacksonville Center
03:58PM 33.1036 -81.4269 24° Northeast 431 496 35,000  Level Jacksonville Center
03:59PM 33.2092 -81.3508 31° Northeast 431 496 35,000 -60 Level Jacksonville Center
04:00PM 33.3083 -81.2672 35° Northeast 431 496 34,900  Descending Jacksonville Center
04:01PM 33.4053 -81.1783 37° Northeast 431 496 35,000  Climbing Jacksonville Center
04:02PM 33.5064 -81.0942 35° Northeast 436 502 35,000  Level Jacksonville Center
04:03PM 33.6053 -81.0047 37° Northeast 436 502 35,000  Level Jacksonville Center
04:04PM 33.6958 -80.9256 36° Northeast 436 502 35,000  Level Jacksonville Center
04:05PM 33.7967 -80.8358 36° Northeast 442 509 35,000  Level Jacksonville Center
04:06PM 33.9061 -80.7581 31° Northeast 447 514 35,000  Level Jacksonville Center
04:07PM 34.0153 -80.6853 29° Northeast 447 514 35,000  Level Jacksonville Center
04:08PM 34.1225 -80.6122 29° Northeast 441 507 35,000  Level Jacksonville Center
04:09PM 34.2339 -80.5367 29° Northeast 441 507 35,000  Level Jacksonville Center
04:11PM 34.4100 -80.4225 28° Northeast 426 490 35,000  Level Washington Center
04:12PM 34.5172 -80.3506 29° Northeast 426 490 35,000  Level Washington Center
04:13PM 34.6286 -80.2764 29° Northeast 444 511 35,000  Level Washington Center
04:14PM 34.7281 -80.1936 34° Northeast 438 504 35,000  Level Washington Center
04:15PM 34.8294 -80.1008 37° Northeast 448 516 35,000  Level Washington Center
04:16PM 34.9308 -80.0153 35° Northeast 448 516 35,000  Level Washington Center
04:17PM 35.0103 -79.8953 51° Northeast 442 509 35,000  Level Washington Center
04:18PM 35.0858 -79.7700 54° Northeast 448 516 35,000  Level Washington Center
04:19PM 35.1611 -79.6442 54° Northeast 454 522 35,000  Level Washington Center
04:20PM 35.2381 -79.5208 53° Northeast 454 522 35,000  Level Washington Center
04:21PM 35.3239 -79.3825 53° Northeast 454 522 35,000  Level Washington Center
04:22PM 35.3944 -79.2661 53° Northeast 459 528 35,000  Level Washington Center
04:23PM 35.4692 -79.1419 54° Northeast 459 528 35,000  Level Washington Center
04:24PM 35.5436 -79.0203 53° Northeast 459 528 35,000  Level Washington Center
04:25PM 35.6203 -78.8933 53° Northeast 459 528 35,000  Level Washington Center
04:26PM 35.6967 -78.7686 53° Northeast 459 528 35,000  Level Washington Center
04:27PM 35.7731 -78.6411 54° Northeast 459 528 35,000  Level Washington Center
04:28PM 35.8450 -78.5106 56° Northeast 459 528 35,000  Level Washington Center
04:29PM 35.9211 -78.3878 53° Northeast 459 528 35,000  Level Washington Center
04:30PM 36.0111 -78.2831 43° Northeast 453 521 35,000  Level Washington Center
04:31PM 36.1111 -78.1914 37° Northeast 435 501 35,000  Level Washington Center
04:32PM 36.2111 -78.0994 37° Northeast 440 506 35,000  Level Washington Center
04:33PM 36.3072 -78.0019 39° Northeast 440 506 35,000  Level Washington Center
04:34PM 36.4031 -77.8992 41° Northeast 445 512 35,000  Level Washington Center
04:35PM 36.4906 -77.7931 44° Northeast 440 506 35,000  Level Washington Center
04:36PM 36.5822 -77.6869 43° Northeast 440 506 35,000  Level Washington Center
04:37PM 36.6717 -77.5808 44° Northeast 440 506 35,000  Level Washington Center
04:38PM 36.7675 -77.4614 45° Northeast 440 506 35,000  Level Washington Center
04:39PM 36.8444 -77.3386 52° Northeast 435 501 35,000  Level Washington Center
04:40PM 36.9233 -77.2183 51° Northeast 435 501 35,000  Level Washington Center
04:41PM 36.9958 -77.0975 53° Northeast 440 506 35,000  Level Washington Center
04:42PM 37.0722 -76.9742 52° Northeast 440 506 35,000  Level Washington Center
04:43PM 37.1489 -76.8503 52° Northeast 440 506 35,000  Level Washington Center
04:44PM 37.2250 -76.7264 52° Northeast 446 513 35,000  Level Washington Center
04:45PM 37.3033 -76.6050 51° Northeast 446 513 35,000  Level Washington Center
04:46PM 37.3711 -76.4961 52° Northeast 446 513 35,000  Level Washington Center
04:47PM 37.4469 -76.3739 52° Northeast 441 507 35,000  Level Washington Center
04:48PM 37.5289 -76.2700 45° Northeast 428 493 35,000  Level Washington Center
04:49PM 37.6253 -76.1817 36° Northeast 420 483 35,000  Level Washington Center
04:50PM 37.7217 -76.1011 33° Northeast 420 483 35,000  Level Washington Center
04:51PM 37.8117 -76.0097 39° Northeast 415 478 35,000  Level Washington Center
04:52PM 37.9058 -75.9233 36° Northeast 415 478 35,000  Level Washington Center
04:53PM 37.9956 -75.8342 38° Northeast 415 478 35,000  Level Washington Center
04:54PM 38.0917 -75.7475 35° Northeast 420 483 35,000  Level Washington Center
04:55PM 38.1836 -75.6603 37° Northeast 414 476 35,000  Level Washington Center
04:56PM 38.2753 -75.5733 37° Northeast 414 476 35,000  Level Washington Center
04:57PM 38.3711 -75.4989 31° Northeast 414 476 35,000  Level Washington Center
04:58PM 38.4753 -75.4539 19° North 394 453 35,000  Level Washington Center
04:59PM 38.5794 -75.4111 18° North 394 453 35,000  Level Washington Center
05:00PM 38.6836 -75.3683 18° North 388 447 35,000  Level Washington Center
05:01PM 38.7900 -75.3253 18° North 388 447 35,000  Level Washington Center
05:02PM 38.8942 -75.2850 17° North 388 447 35,000  Level Washington Center
05:03PM 38.9878 -75.2017 35° Northeast 383 441 35,000  Level Washington Center
05:04PM 39.0750 -75.1103 39° Northeast 395 455 35,000  Level Washington Center
05:05PM 39.1642 -75.0161 39° Northeast 401 461 35,000  Level Washington Center
05:06PM 39.2533 -74.9242 39° Northeast 407 468 35,000 -240 Level Washington Center
05:07PM 39.3422 -74.8322 39° Northeast 412 474 34,600 -720 Descending Washington Center
05:08PM 39.4333 -74.7397 38° Northeast 412 474 33,600 -1,020 Descending Washington Center
05:09PM 39.5283 -74.6444 38° Northeast 418 481 32,600 -960 Descending Washington Center
05:10PM 39.6214 -74.5464 39° Northeast 418 481 31,700 -1,020 Descending Washington Center
05:11PM 39.7247 -74.4369 39° Northeast 424 488 30,600 -1,080 Descending Washington Center
05:12PM 39.8456 -74.3156 38° Northeast 458 527 29,300 -1,140 Descending New York Center
05:13PM 39.9406 -74.2119 40° Northeast 464 534 27,900 -1,500 Descending New York Center
05:14PM 40.0414 -74.1058 39° Northeast 464 534 26,400 -1,560 Descending New York Center
05:15PM 40.1444 -73.9994 38° Northeast 464 534 24,900 -720 Descending New York Center
05:16PM 40.2411 -73.8925 40° Northeast 459 528 25,000  Climbing New York Center
05:17PM 40.3525 -73.7803 38° Northeast 464 534 25,000  Level New York Center
05:18PM 40.4508 -73.6783 38° Northeast 457 526 25,000 -960 Level New York Center
05:20PM 40.6453 -73.4547 41° Northeast 457 526 22,200 -1,860 Descending Boston Center
05:21PM 40.7461 -73.3578 36° Northeast 445 512 19,400 -1,620 Descending Boston Center
05:22PM 40.8322 -73.2603 41° Northeast 431 496 19,000 -780 Descending Boston Center
05:23PM 40.9228 -73.1542 42° Northeast 425 489 17,900 -900 Descending Boston Center
05:24PM 41.0067 -73.0533 42° Northeast 420 483 17,200 -1,320 Descending Boston Center
05:25PM 41.0925 -72.9578 40° Northeast 408 470 15,300 -1,920 Descending Boston Center
05:26PM 41.1722 -72.8647 41° Northeast 397 457 13,400 -1,980 Descending Boston Center
05:27PM 41.1908 -72.8428 42° Northeast 385 443 12,800 -2,040 Descending Boston Center
05:27PM 41.2475 -72.7714 43° Northeast 382 440 11,400 -1,800 Descending Boston Center
05:28PM 41.2642 -72.7494 45° Northeast 362 417 11,000 -420 Descending Boston Center
05:28PM 41.3289 -72.7164 21° North 341 392 11,000 -600 Level Boston Center
05:29PM 41.4353 -72.6947 North 354 407 10,000 -540 Descending Boston Center
05:30PM 41.5144 -72.6811 North 336 387 10,000 -720 Level Boston Center
05:31PM 41.5833 -72.6678 North 296 341 8,700 -1,620 Descending Boston Center
05:32PM 41.6750 -72.6486 North 270 311 6,600 -1,620 Descending Boston Center
05:33PM 41.7250 -72.6347 12° North 268 308 5,500 -1,380 Descending Boston Center
05:34PM 41.8106 -72.5767 27° Northeast 278 320 4,000 -780 Descending Boston Center
05:35PM 41.8628 -72.5406 27° Northeast 260 299 4,000  Level Boston Center
05:36PM 41.8856 -72.5322 15° North 248 285 4,000 -120 Level Boston Center
05:36PM 41.9336 -72.5433 350° North 230 265 3,900 -1,020 Descending Boston Center
05:37PM 41.9897 -72.5686 341° North 220 253 2,300 -1,140 Descending Boston Center
05:38PM 41.9939 -72.6189 276° West 153 176 1,700 -840 Descending Boston Center
05:39PM 41.9708 -72.6522 227° Southwest 124 143 700 -720 Descending Boston Center
05:40PM 41.9519 -72.6886 235° Southwest 129 148 300 -420 Descending Boston Center
05:42PM 41.9392 -72.6834 163° South  Level Estimated